createdAt,value
2022-12-20T00:01:52.146Z,100304.41
2022-12-20T00:04:19.854Z,100311.50
2022-12-20T00:06:48.765Z,100310.66
2022-12-20T00:09:16.310Z,100305.38
2022-12-20T00:11:43.983Z,100308.00
2022-12-20T00:14:11.729Z,100301.97
2022-12-20T00:16:39.607Z,100299.31
2022-12-20T00:19:07.848Z,100305.41
2022-12-20T00:21:36.060Z,100294.75
2022-12-20T00:24:05.533Z,100284.88
2022-12-20T00:26:35.130Z,100284.16
2022-12-20T00:29:02.724Z,100292.13
2022-12-20T00:31:31.635Z,100280.50
2022-12-20T00:34:00.972Z,100293.06
2022-12-20T00:36:30.723Z,100285.06
2022-12-20T00:38:59.019Z,100286.69
2022-12-20T00:41:29.913Z,100285.94
2022-12-20T00:43:57.491Z,100282.38
2022-12-20T00:46:25.706Z,100288.63
2022-12-20T00:48:53.733Z,100285.78
2022-12-20T00:51:22.894Z,100284.06
2022-12-20T00:53:50.604Z,100281.41
2022-12-20T00:56:18.745Z,100275.25
2022-12-20T00:58:47.731Z,100277.81
2022-12-20T01:01:18.342Z,100279.66
2022-12-20T01:03:46.135Z,100277.84
2022-12-20T01:06:13.832Z,100269.88
2022-12-20T01:08:41.411Z,100273.44
2022-12-20T01:11:11.790Z,100276.09
2022-12-20T01:13:42.209Z,100277.03
2022-12-20T01:16:13.584Z,100267.22
2022-12-20T01:18:41.290Z,100284.94
2022-12-20T01:21:11.173Z,100278.72
2022-12-20T01:23:39.014Z,100276.06
2022-12-20T01:26:09.163Z,100269.88
2022-12-20T01:28:37.639Z,100276.81
2022-12-20T01:31:07.651Z,100275.16
2022-12-20T01:33:37.340Z,100272.53
2022-12-20T01:36:06.714Z,100269.88
2022-12-20T01:38:36.089Z,100258.34
2022-12-20T01:41:04.316Z,100265.44
2022-12-20T01:43:48.699Z,100276.91
2022-12-20T01:46:16.554Z,100272.50
2022-12-20T01:48:51.946Z,100269.91
2022-12-20T01:51:20.245Z,100269.88
2022-12-20T01:53:48.921Z,100266.38
2022-12-20T01:56:16.500Z,100255.44
2022-12-20T01:58:44.954Z,100250.50
2022-12-20T02:01:12.688Z,100251.66
2022-12-20T02:03:40.369Z,100245.00
2022-12-20T02:06:18.125Z,100238.91
2022-12-20T02:08:46.999Z,100238.75
2022-12-20T02:11:26.069Z,100242.66
2022-12-20T02:14:01.978Z,100237.09
2022-12-20T02:16:36.878Z,100241.78
2022-12-20T02:19:11.811Z,100243.69
2022-12-20T02:21:43.730Z,100245.56
2022-12-20T02:24:59.446Z,100248.09
2022-12-20T02:27:39.199Z,100239.41
2022-12-20T02:30:11.363Z,100240.19
2022-12-20T02:32:43.340Z,100236.66
2022-12-20T02:35:13.962Z,100235.78
2022-12-20T02:37:49.402Z,100237.56
2022-12-20T02:40:19.624Z,100218.00
2022-12-20T02:42:47.657Z,100224.28
2022-12-20T02:45:15.865Z,100219.00
2022-12-20T02:47:49.314Z,100216.25
2022-12-20T02:50:25.572Z,100213.63
2022-12-20T02:52:55.453Z,100207.28
2022-12-20T02:55:26.298Z,100207.25
2022-12-20T02:58:00.417Z,100207.34
2022-12-20T03:00:34.610Z,100201.06
2022-12-20T03:03:20.042Z,100201.88
2022-12-20T03:05:48.605Z,100213.38
2022-12-20T03:08:16.281Z,100222.19
2022-12-20T03:10:45.784Z,100228.38
2022-12-20T03:13:13.561Z,100231.94
2022-12-20T03:15:42.667Z,100230.91
2022-12-20T03:18:10.263Z,100236.38
2022-12-20T03:20:38.053Z,100220.34
2022-12-20T03:23:05.943Z,100218.56
2022-12-20T03:25:33.534Z,100215.88
2022-12-20T03:28:01.091Z,100220.44
2022-12-20T03:30:28.687Z,100217.75
2022-12-20T03:32:58.117Z,100207.03
2022-12-20T03:35:25.704Z,100211.56
2022-12-20T03:37:53.290Z,100217.81
2022-12-20T03:40:20.888Z,100211.47
2022-12-20T03:42:48.449Z,100208.72
2022-12-20T03:45:16.157Z,100212.34
2022-12-20T03:47:43.682Z,100216.78
2022-12-20T03:50:13.028Z,100213.16
2022-12-20T03:52:40.641Z,100212.16
2022-12-20T03:55:09.763Z,100208.16
2022-12-20T03:57:37.639Z,100205.44
2022-12-20T04:00:06.589Z,100199.84
2022-12-20T04:02:34.279Z,100203.22
2022-12-20T04:05:01.956Z,100200.47
2022-12-20T04:07:30.866Z,100192.03
2022-12-20T04:09:58.467Z,100198.69
2022-12-20T04:12:26.019Z,100189.00
2022-12-20T04:14:53.824Z,100191.88
2022-12-20T04:17:21.393Z,100199.72
2022-12-20T04:19:48.938Z,100188.16
2022-12-20T04:22:16.531Z,100192.41
2022-12-20T04:24:45.488Z,100178.59
2022-12-20T04:27:13.328Z,100179.47
2022-12-20T04:29:40.948Z,100167.53
2022-12-20T04:32:08.533Z,100179.03
2022-12-20T04:34:36.109Z,100182.78
2022-12-20T04:37:04.161Z,100187.56
2022-12-20T04:39:31.927Z,100189.50
2022-12-20T04:42:01.017Z,100190.34
2022-12-20T04:44:28.607Z,100198.41
2022-12-20T04:46:56.192Z,100184.22
2022-12-20T04:49:23.792Z,100184.19
2022-12-20T04:51:51.558Z,100183.00
2022-12-20T04:54:18.228Z,100185.59
2022-12-20T04:56:45.822Z,100185.47
2022-12-20T04:59:14.751Z,100177.47
2022-12-20T05:01:42.560Z,100178.09
2022-12-20T05:04:10.275Z,100167.94
2022-12-20T05:06:38.055Z,100182.56
2022-12-20T05:09:05.721Z,100176.44
2022-12-20T05:11:33.331Z,100190.66
2022-12-20T05:14:01.036Z,100186.03
2022-12-20T05:16:30.042Z,100184.13
2022-12-20T05:18:57.689Z,100194.19
2022-12-20T05:21:42.763Z,100194.03
2022-12-20T05:24:28.618Z,100186.09
2022-12-20T05:26:56.643Z,100198.50
2022-12-20T05:29:24.210Z,100204.47
2022-12-20T05:31:53.594Z,100208.16
2022-12-20T05:34:21.369Z,100201.19
2022-12-20T05:36:48.960Z,100203.59
2022-12-20T05:39:16.878Z,100208.69
2022-12-20T05:41:44.653Z,100201.75
2022-12-20T05:44:12.493Z,100198.97
2022-12-20T05:46:40.367Z,100215.50
2022-12-20T05:49:09.339Z,100222.50
2022-12-20T05:51:37.144Z,100217.28
2022-12-20T05:54:05.724Z,100221.56
2022-12-20T05:56:33.547Z,100217.03
2022-12-20T05:59:01.477Z,100216.91
2022-12-20T06:01:29.195Z,100208.09
2022-12-20T06:03:57.124Z,100209.59
2022-12-20T06:06:26.377Z,100197.31
2022-12-20T06:08:56.094Z,100201.69
2022-12-20T06:11:29.635Z,100204.34
2022-12-20T06:13:58.493Z,100195.38
2022-12-20T06:16:26.248Z,100197.19
2022-12-20T06:18:54.010Z,100199.75
2022-12-20T06:21:21.906Z,100190.72
2022-12-20T06:23:50.894Z,100203.22
2022-12-20T06:26:19.073Z,100191.66
2022-12-20T06:28:46.781Z,100192.41
2022-12-20T06:31:14.689Z,100194.22
2022-12-20T06:33:42.514Z,100196.97
2022-12-20T06:36:10.343Z,100203.09
2022-12-20T06:38:38.180Z,100205.75
2022-12-20T06:41:07.303Z,100207.06
2022-12-20T06:43:35.062Z,100203.69
2022-12-20T06:46:02.796Z,100206.44
2022-12-20T06:48:31.143Z,100206.56
2022-12-20T06:51:00.144Z,100206.13
2022-12-20T06:53:27.877Z,100208.16
2022-12-20T06:55:55.705Z,100209.84
2022-12-20T06:58:24.662Z,100195.75
2022-12-20T07:00:52.359Z,100202.88
2022-12-20T07:03:20.144Z,100201.91
2022-12-20T07:05:52.532Z,100205.47
2022-12-20T07:08:20.135Z,100196.28
2022-12-20T07:10:48.339Z,100198.31
2022-12-20T07:13:15.960Z,100194.78
2022-12-20T07:15:44.909Z,100200.09
2022-12-20T07:18:13.052Z,100203.66
2022-12-20T07:20:41.421Z,100199.19
2022-12-20T07:23:09.010Z,100196.59
2022-12-20T07:25:36.764Z,100199.25
2022-12-20T07:28:05.074Z,100200.13
2022-12-20T07:30:32.728Z,100190.47
2022-12-20T07:33:01.892Z,100191.38
2022-12-20T07:35:29.495Z,100187.78
2022-12-20T07:37:57.263Z,100183.97
2022-12-20T07:40:24.834Z,100186.84
2022-12-20T07:42:52.438Z,100187.69
2022-12-20T07:45:20.059Z,100181.50
2022-12-20T07:47:48.048Z,100193.97
2022-12-20T07:50:17.241Z,100196.63
2022-12-20T07:52:47.052Z,100186.84
2022-12-20T07:55:15.828Z,100181.84
2022-12-20T07:57:45.881Z,100180.63
2022-12-20T08:00:15.022Z,100182.53
2022-12-20T08:02:46.041Z,100182.19
2022-12-20T08:05:15.705Z,100182.94
2022-12-20T08:07:46.825Z,100186.75
2022-12-20T08:10:15.574Z,100190.19
2022-12-20T08:12:45.131Z,100184.13
2022-12-20T08:15:13.175Z,100176.13
2022-12-20T08:17:40.983Z,100176.13
2022-12-20T08:20:09.631Z,100182.69
2022-12-20T08:22:37.361Z,100172.91
2022-12-20T08:25:07.679Z,100176.66
2022-12-20T08:27:35.460Z,100191.13
2022-12-20T08:30:03.168Z,100187.91
2022-12-20T08:32:30.818Z,100191.91
2022-12-20T08:34:58.389Z,100182.97
2022-12-20T08:37:26.127Z,100177.56
2022-12-20T08:39:53.797Z,100177.50
2022-12-20T08:42:22.918Z,100182.75
2022-12-20T08:44:50.489Z,100182.50
2022-12-20T08:47:18.192Z,100185.53
2022-12-20T08:49:47.990Z,100197.91
2022-12-20T08:52:16.090Z,100190.47
2022-12-20T08:54:43.775Z,100198.69
2022-12-20T08:57:11.357Z,100189.50
2022-12-20T08:59:40.351Z,100180.09
2022-12-20T09:02:08.254Z,100182.28
2022-12-20T09:04:36.143Z,100175.53
2022-12-20T09:07:03.843Z,100178.00
2022-12-20T09:09:31.614Z,100166.72
2022-12-20T09:11:59.228Z,100162.34
2022-12-20T09:14:26.817Z,100170.66
2022-12-20T09:16:55.851Z,100160.03
2022-12-20T09:19:23.468Z,100162.13
2022-12-20T09:21:51.145Z,100166.88
2022-12-20T09:24:18.738Z,100164.25
2022-12-20T09:26:46.322Z,100169.44
2022-12-20T09:29:25.053Z,100173.75
2022-12-20T09:31:56.202Z,100172.56
2022-12-20T09:34:23.816Z,100167.22
2022-12-20T09:36:52.806Z,100172.66
2022-12-20T09:39:20.357Z,100172.59
2022-12-20T09:41:48.225Z,100164.63
2022-12-20T09:44:19.664Z,100158.34
2022-12-20T09:46:48.653Z,100154.47
2022-12-20T09:49:19.424Z,100143.44
2022-12-20T09:52:01.253Z,100155.63
2022-12-20T09:54:34.429Z,100165.38
2022-12-20T09:57:07.973Z,100147.75
2022-12-20T09:59:40.404Z,100143.13
2022-12-20T10:02:35.417Z,100147.72
2022-12-20T10:04:59.440Z,100143.16
2022-12-20T10:07:38.982Z,100121.00
2022-12-20T10:10:21.157Z,100116.50
2022-12-20T10:12:53.465Z,100117.31
2022-12-20T10:15:23.572Z,100124.47
2022-12-20T10:18:01.561Z,100113.78
2022-12-20T10:20:40.179Z,100120.06
2022-12-20T10:23:14.332Z,100112.13
2022-12-20T10:25:43.197Z,100107.69
2022-12-20T10:28:15.167Z,100114.00
2022-12-20T10:30:43.261Z,100111.28
2022-12-20T10:33:16.389Z,100107.78
2022-12-20T10:35:45.965Z,100113.78
2022-12-20T10:38:17.553Z,100103.31
2022-12-20T10:41:19.929Z,100105.13
2022-12-20T10:43:41.594Z,100101.31
2022-12-20T10:46:10.034Z,100101.31
2022-12-20T10:48:39.373Z,100103.03
2022-12-20T10:51:16.733Z,100095.09
2022-12-20T10:53:57.734Z,100072.81
2022-12-20T10:56:28.529Z,100063.16
2022-12-20T10:58:59.246Z,100056.09
2022-12-20T11:01:31.228Z,100054.13
2022-12-20T11:04:01.696Z,100045.13
2022-12-20T11:06:43.192Z,100044.19
2022-12-20T11:09:24.577Z,100042.31
2022-12-20T11:12:03.544Z,100039.69
2022-12-20T11:14:38.687Z,100041.38
2022-12-20T11:17:19.217Z,100038.94
2022-12-20T11:19:59.552Z,100029.97
2022-12-20T11:22:37.421Z,100030.94
2022-12-20T11:25:18.886Z,100026.72
2022-12-20T11:27:52.595Z,100026.69
2022-12-20T11:30:21.549Z,100025.28
2022-12-20T11:33:12.561Z,100034.50
2022-12-20T11:35:48.648Z,100023.53
2022-12-20T11:38:26.873Z,100018.09
2022-12-20T11:41:09.555Z,100015.53
2022-12-20T11:44:15.816Z,100012.19
2022-12-20T11:46:45.687Z,100016.50
2022-12-20T11:49:34.340Z,100012.41
2022-12-20T11:52:07.027Z,100005.78
2022-12-20T11:54:39.855Z,100018.50
2022-12-20T11:57:14.561Z,100011.78
2022-12-20T11:59:46.696Z,100011.66
2022-12-20T12:02:18.274Z,100006.31
2022-12-20T12:04:50.698Z,100003.66
2022-12-20T12:07:20.745Z,99999.09
2022-12-20T12:09:55.816Z,99994.94
2022-12-20T12:12:28.028Z,99996.03
2022-12-20T12:15:00.857Z,99996.94
2022-12-20T12:17:30.616Z,99993.66
2022-12-20T12:20:17.749Z,99996.03
2022-12-20T12:22:46.531Z,100000.00
2022-12-20T12:25:18.701Z,99995.47
2022-12-20T12:27:46.799Z,99986.59
2022-12-20T12:30:15.843Z,99985.84
2022-12-20T12:32:46.025Z,99979.41
2022-12-20T12:35:39.353Z,99983.72
2022-12-20T12:38:18.385Z,99982.63
2022-12-20T12:41:10.337Z,99977.25
2022-12-20T12:43:47.719Z,99978.16
2022-12-20T12:46:18.372Z,99975.72
2022-12-20T12:48:50.115Z,99970.97
2022-12-20T12:51:23.891Z,99960.47
2022-12-20T12:53:53.510Z,99956.25
2022-12-20T12:56:45.866Z,99952.22
2022-12-20T12:59:42.164Z,99956.81
2022-12-20T13:02:52.183Z,99953.81
2022-12-20T13:05:37.972Z,99965.03
2022-12-20T13:08:16.832Z,99960.28
2022-12-20T13:11:00.314Z,99940.06
2022-12-20T13:13:29.614Z,99930.72
2022-12-20T13:16:12.482Z,99922.03
2022-12-20T13:18:40.088Z,99935.16
2022-12-20T13:21:36.920Z,99927.03
2022-12-20T13:24:38.153Z,99925.41
2022-12-20T13:27:31.357Z,99917.78
2022-12-20T13:30:03.514Z,99922.53
2022-12-20T13:32:55.842Z,99922.38
2022-12-20T13:35:32.280Z,99915.34
2022-12-20T13:38:02.187Z,99922.31
2022-12-20T13:40:35.507Z,99920.16
2022-12-20T13:43:09.636Z,99926.44
2022-12-20T13:45:40.142Z,99920.03
2022-12-20T13:48:11.732Z,99927.94
2022-12-20T13:50:40.959Z,99933.25
2022-12-20T13:53:17.387Z,99924.97
2022-12-20T13:55:45.396Z,99927.50
2022-12-20T13:58:15.494Z,99923.66
2022-12-20T14:00:45.233Z,99928.75
2022-12-20T14:03:20.811Z,99922.75
2022-12-20T14:05:48.768Z,99929.25
2022-12-20T14:08:18.603Z,99925.47
2022-12-20T14:10:46.108Z,99925.03
2022-12-20T14:13:22.490Z,99912.44
2022-12-20T14:15:51.927Z,99914.69
2022-12-20T14:18:20.958Z,99905.59
2022-12-20T14:20:51.162Z,99908.16
2022-12-20T14:23:20.690Z,99919.00
2022-12-20T14:25:49.976Z,99896.69
2022-12-20T14:28:26.983Z,99899.81
2022-12-20T14:30:57.187Z,99893.09
2022-12-20T14:33:30.597Z,99898.75
2022-12-20T14:36:00.058Z,99895.88
2022-12-20T14:38:31.424Z,99895.00
2022-12-20T14:40:59.165Z,99901.09
2022-12-20T14:43:29.314Z,99903.66
2022-12-20T14:46:19.845Z,99896.44
2022-12-20T14:48:48.090Z,99891.38
2022-12-20T14:51:21.243Z,99888.44
2022-12-20T14:53:49.756Z,99885.69
2022-12-20T14:56:22.609Z,99882.16
2022-12-20T14:59:04.537Z,99887.50
2022-12-20T15:01:37.230Z,99884.06
2022-12-20T15:04:22.856Z,99880.41
2022-12-20T15:06:52.484Z,99878.66
2022-12-20T15:09:20.165Z,99885.13
2022-12-20T15:11:48.177Z,99880.88
2022-12-20T15:14:23.795Z,99886.09
2022-12-20T15:16:53.278Z,99878.84
2022-12-20T15:19:20.756Z,99887.78
2022-12-20T15:21:48.372Z,99893.31
2022-12-20T15:24:18.663Z,99877.69
2022-12-20T15:26:46.517Z,99867.34
2022-12-20T15:29:16.810Z,99863.56
2022-12-20T15:31:45.324Z,99855.00
2022-12-20T15:34:16.617Z,99857.19
2022-12-20T15:36:44.546Z,99851.22
2022-12-20T15:39:14.745Z,99851.03
2022-12-20T15:41:46.110Z,99842.28
2022-12-20T15:44:15.110Z,99837.00
2022-12-20T15:46:44.297Z,99849.13
2022-12-20T15:49:17.112Z,99851.38
2022-12-20T15:51:46.307Z,99847.44
2022-12-20T15:54:22.710Z,99840.53
2022-12-20T15:56:50.261Z,99849.22
2022-12-20T15:59:57.568Z,99849.84
2022-12-20T16:02:10.134Z,99848.13
2022-12-20T16:04:38.965Z,99855.34
2022-12-20T16:07:14.521Z,99846.44
2022-12-20T16:09:41.967Z,99854.34
2022-12-20T16:12:14.202Z,99859.53
2022-12-20T16:14:42.165Z,99848.59
2022-12-20T16:17:13.918Z,99846.00
2022-12-20T16:19:43.316Z,99844.81
2022-12-20T16:22:15.547Z,99853.84
2022-12-20T16:24:43.493Z,99855.44
2022-12-20T16:27:11.031Z,99855.59
2022-12-20T16:29:38.521Z,99855.63
2022-12-20T16:32:13.172Z,99865.38
2022-12-20T16:34:40.653Z,99858.03
2022-12-20T16:37:09.446Z,99857.91
2022-12-20T16:39:36.889Z,99860.19
2022-12-20T16:42:04.585Z,99867.88
2022-12-20T16:44:32.940Z,99867.63
2022-12-20T16:47:00.490Z,99874.75
2022-12-20T16:49:28.053Z,99872.22
2022-12-20T16:51:55.521Z,99873.09
2022-12-20T16:54:24.308Z,99881.84
2022-12-20T16:56:55.958Z,99880.16
2022-12-20T16:59:23.716Z,99873.63
2022-12-20T17:01:53.381Z,99878.50
2022-12-20T17:04:21.449Z,99875.50
2022-12-20T17:06:49.117Z,99875.50
2022-12-20T17:12:04.256Z,99870.28
2022-12-20T17:14:31.903Z,99871.16
2022-12-20T17:17:01.659Z,99868.66
2022-12-20T17:19:29.124Z,99862.56
2022-12-20T17:24:41.951Z,99866.41
2022-12-20T17:27:11.615Z,99870.34
2022-12-20T17:29:39.083Z,99865.28
2022-12-20T17:32:19.217Z,99863.59
2022-12-20T17:34:46.821Z,99859.06
2022-12-20T17:37:14.422Z,99864.25
2022-12-20T17:39:41.908Z,99861.63
2022-12-20T17:42:13.436Z,99858.19
2022-12-20T17:44:41.437Z,99858.41
2022-12-20T17:47:08.931Z,99855.44
2022-12-20T17:49:36.499Z,99861.53
2022-12-20T17:52:04.186Z,99852.03
2022-12-20T17:54:38.955Z,99846.88
2022-12-20T17:57:10.897Z,99845.09
2022-12-20T17:59:39.710Z,99839.47
2022-12-20T18:02:18.943Z,99856.31
2022-12-20T18:04:47.155Z,99858.03
2022-12-20T18:07:14.710Z,99841.53
2022-12-20T18:09:42.223Z,99848.22
2022-12-20T18:12:11.344Z,99843.06
2022-12-20T18:14:40.130Z,99844.63
2022-12-20T18:17:07.694Z,99856.31
2022-12-20T18:19:35.211Z,99852.00
2022-12-20T18:22:04.580Z,99857.19
2022-12-20T18:24:32.048Z,99843.38
2022-12-20T18:26:59.521Z,99841.59
2022-12-20T18:29:27.026Z,99835.19
2022-12-20T18:31:55.920Z,99831.09
2022-12-20T18:34:23.666Z,99835.00
2022-12-20T18:36:51.143Z,99837.00
2022-12-20T18:39:19.524Z,99847.44
2022-12-20T18:41:47.955Z,99837.78
2022-12-20T18:44:15.439Z,99831.97
2022-12-20T18:46:42.939Z,99830.66
2022-12-20T18:49:11.785Z,99834.00
2022-12-20T18:51:39.360Z,99829.81
2022-12-20T18:54:08.542Z,99833.66
2022-12-20T18:56:38.191Z,99834.00
2022-12-20T18:59:11.322Z,99839.38
2022-12-20T19:01:40.489Z,99837.22
2022-12-20T19:04:10.792Z,99821.41
2022-12-20T19:06:39.879Z,99820.38
2022-12-20T19:09:09.786Z,99824.34
2022-12-20T19:11:37.303Z,99825.81
2022-12-20T19:14:04.837Z,99815.88
2022-12-20T19:16:33.153Z,99823.41
2022-12-20T19:19:01.720Z,99829.28
2022-12-20T19:21:31.249Z,99822.28
2022-12-20T19:24:02.147Z,99825.69
2022-12-20T19:26:29.937Z,99824.22
2022-12-20T19:28:57.650Z,99819.00
2022-12-20T19:31:26.680Z,99819.81
2022-12-20T19:33:55.573Z,99817.69
2022-12-20T19:36:25.636Z,99822.84
2022-12-20T19:38:55.784Z,99816.75
2022-12-20T19:41:25.831Z,99821.31
2022-12-20T19:43:53.385Z,99809.25
2022-12-20T19:46:28.249Z,99820.63
2022-12-20T19:48:57.172Z,99818.72
2022-12-20T19:51:25.662Z,99817.94
2022-12-20T19:53:54.427Z,99808.25
2022-12-20T19:56:25.225Z,99805.78
2022-12-20T19:58:53.166Z,99801.41
2022-12-20T20:01:21.278Z,99816.13
2022-12-20T20:03:49.039Z,99809.22
2022-12-20T20:06:16.551Z,99819.63
2022-12-20T20:08:44.745Z,99819.38
2022-12-20T20:11:12.737Z,99809.28
2022-12-20T20:13:41.609Z,99806.56
2022-12-20T20:16:10.822Z,99803.25
2022-12-20T20:18:39.331Z,99800.00
2022-12-20T20:21:08.939Z,99799.78
2022-12-20T20:23:37.671Z,99790.91
2022-12-20T20:26:08.137Z,99799.22
2022-12-20T20:28:43.687Z,99795.94
2022-12-20T20:31:16.141Z,99792.69
2022-12-20T20:33:44.193Z,99795.19
2022-12-20T20:36:14.558Z,99790.03
2022-12-20T20:38:42.051Z,99797.06
2022-12-20T20:41:09.592Z,99799.66
2022-12-20T20:43:37.980Z,99794.53
2022-12-20T20:46:06.885Z,99784.84
2022-12-20T20:48:36.048Z,99783.22
2022-12-20T20:51:03.585Z,99778.81
2022-12-20T20:53:34.218Z,99783.94
2022-12-20T20:56:01.982Z,99774.72
2022-12-20T20:58:29.491Z,99779.81
2022-12-20T21:00:58.066Z,99778.88
2022-12-20T21:03:25.790Z,99782.00
2022-12-20T21:08:42.181Z,99786.06
2022-12-20T21:11:10.427Z,99776.66
2022-12-20T21:13:37.975Z,99781.31
2022-12-20T21:16:07.103Z,99779.22
2022-12-20T21:18:34.593Z,99780.38
2022-12-20T21:21:08.355Z,99775.56
2022-12-20T21:23:35.863Z,99775.31
2022-12-20T21:26:03.583Z,99774.47
2022-12-20T21:28:31.691Z,99780.63
2022-12-20T21:31:00.526Z,99781.94
2022-12-20T21:33:28.275Z,99787.75
2022-12-20T21:36:00.218Z,99788.44
2022-12-20T21:38:29.150Z,99793.13
2022-12-20T21:41:00.816Z,99781.22
2022-12-20T21:43:28.358Z,99785.31
2022-12-20T21:45:56.002Z,99779.09
2022-12-20T21:48:23.729Z,99783.19
2022-12-20T21:50:59.537Z,99768.25
2022-12-20T21:53:27.061Z,99769.78
2022-12-20T21:55:56.710Z,99767.84
2022-12-20T21:58:24.238Z,99765.38
2022-12-20T22:00:55.074Z,99754.81
2022-12-20T22:03:24.041Z,99759.84
2022-12-20T22:05:53.587Z,99751.97
2022-12-20T22:08:21.996Z,99753.03
2022-12-20T22:10:50.287Z,99751.34
2022-12-20T22:13:19.065Z,99741.72
2022-12-20T22:15:46.542Z,99749.66
2022-12-20T22:18:14.000Z,99755.53
2022-12-20T22:20:44.944Z,99768.50
2022-12-20T22:23:12.447Z,99761.66
2022-12-20T22:25:39.968Z,99761.81
2022-12-20T22:28:07.674Z,99754.69
2022-12-20T22:30:36.608Z,99754.69
2022-12-20T22:33:04.306Z,99755.41
2022-12-20T22:35:31.921Z,99760.09
2022-12-20T22:37:59.378Z,99758.53
2022-12-20T22:40:26.871Z,99751.44
2022-12-20T22:42:54.354Z,99751.63
2022-12-20T22:45:21.892Z,99751.47
2022-12-20T22:47:50.819Z,99760.44
2022-12-20T22:50:18.529Z,99762.13
2022-12-20T22:52:46.106Z,99763.25
2022-12-20T22:55:13.648Z,99776.91
2022-12-20T22:57:41.314Z,99765.88
2022-12-20T23:00:13.039Z,99754.72
2022-12-20T23:02:41.417Z,99751.03
2022-12-20T23:05:10.682Z,99746.53
2022-12-20T23:07:38.193Z,99748.63
2022-12-20T23:10:26.501Z,99748.03
2022-12-20T23:13:07.949Z,99743.63
2022-12-20T23:15:41.626Z,99748.78
2022-12-20T23:18:09.141Z,99736.44
2022-12-20T23:20:55.654Z,99740.44
2022-12-20T23:23:23.107Z,99728.81
2022-12-20T23:25:50.580Z,99730.84
2022-12-20T23:28:18.073Z,99723.59
2022-12-20T23:30:45.838Z,99726.13
2022-12-20T23:33:13.322Z,99721.53
2022-12-20T23:35:42.140Z,99723.53
2022-12-20T23:38:09.591Z,99718.94
2022-12-20T23:40:37.098Z,99715.34
2022-12-20T23:43:04.563Z,99711.94
2022-12-20T23:45:32.340Z,99701.38
2022-12-20T23:48:00.187Z,99697.59
2022-12-20T23:50:27.704Z,99696.91
2022-12-20T23:52:56.499Z,99696.91
2022-12-20T23:55:23.980Z,99687.44
2022-12-20T23:57:51.717Z,99682.63
